Time;durP1;ratioP1;P1;durP2;ratioP2;P2;SDS_P1;SDS_P2;PMS_P1;PMS_P2;Temp;Humidity;BMP_temperature;BMP_pressure;BME280_temperature;BME280_humidity;BME280_pressure;Samples;Min_cycle;Max_cycle;Signal;HPM_P1;HPM_P2
2022/05/20 00:00:05;;;;;;;11.98;7.90;;;;;;;;;;5078017;28;20097;-72
2022/05/20 00:02:32;;;;;;;10.45;7.63;;;;;;;;;;5078459;28;20054;-72
2022/05/20 00:04:59;;;;;;;9.70;7.75;;;;;;;;;;5077528;28;20037;-73
2022/05/20 00:07:25;;;;;;;10.05;7.75;;;;;;;;;;5075958;28;20047;-73
2022/05/20 00:09:51;;;;;;;9.13;7.60;;;;;;;;;;5077402;28;20047;-73
2022/05/20 00:12:19;;;;;;;10.52;7.20;;;;;;;;;;5076700;28;20044;-72
2022/05/20 00:14:45;;;;;;;10.48;7.50;;;;;;;;;;5077292;28;20052;-73
2022/05/20 00:17:11;;;;;;;11.55;7.85;;;;;;;;;;5077665;28;20037;-72
2022/05/20 00:19:37;;;;;;;12.20;7.57;;;;;;;;;;5066795;28;20040;-72
2022/05/20 00:22:05;;;;;;;9.98;7.38;;;;;;;;;;5077099;28;20383;-71
2022/05/20 00:24:32;;;;;;;11.43;6.75;;;;;;;;;;5074778;28;20045;-72
2022/05/20 00:26:58;;;;;;;9.20;6.57;;;;;;;;;;5075480;28;20119;-72
2022/05/20 00:29:25;;;;;;;9.05;6.53;;;;;;;;;;5076955;28;20047;-71
2022/05/20 00:31:51;;;;;;;8.82;6.80;;;;;;;;;;5070189;28;20041;-73
2022/05/20 00:34:17;;;;;;;9.93;6.25;;;;;;;;;;5043696;28;20466;-72
2022/05/20 00:36:43;;;;;;;10.52;5.43;;;;;;;;;;5067798;28;20041;-73
2022/05/20 00:39:09;;;;;;;8.55;5.22;;;;;;;;;;5060021;28;20052;-73
2022/05/20 00:41:35;;;;;;;12.52;5.88;;;;;;;;;;5058375;28;20099;-72
2022/05/20 00:44:01;;;;;;;8.48;5.82;;;;;;;;;;5068485;28;20088;-73
2022/05/20 00:46:28;;;;;;;11.38;6.05;;;;;;;;;;5074742;28;20110;-72
2022/05/20 00:48:57;;;;;;;8.13;5.45;;;;;;;;;;5073559;28;20504;-72
2022/05/20 00:51:27;;;;;;;10.00;5.72;;;;;;;;;;5076065;28;20047;-73
2022/05/20 00:53:53;;;;;;;9.10;5.80;;;;;;;;;;5074402;28;20090;-72
2022/05/20 00:56:22;;;;;;;8.60;5.85;;;;;;;;;;5075102;28;20075;-72
2022/05/20 00:58:48;;;;;;;9.55;6.60;;;;;;;;;;5069922;28;20052;-72
2022/05/20 01:01:14;;;;;;;11.48;6.13;;;;;;;;;;5073310;28;20115;-72
2022/05/20 01:03:40;;;;;;;8.07;5.75;;;;;;;;;;5074937;28;20075;-73
2022/05/20 01:06:08;;;;;;;8.30;5.50;;;;;;;;;;5073524;28;20520;-72
2022/05/20 01:08:34;;;;;;;10.00;5.75;;;;;;;;;;5076637;28;20036;-72
2022/05/20 01:11:00;;;;;;;9.98;5.40;;;;;;;;;;5063097;28;20041;-74
2022/05/20 01:13:27;;;;;;;8.65;5.07;;;;;;;;;;5057311;28;20055;-73
2022/05/20 01:15:54;;;;;;;7.30;4.78;;;;;;;;;;5069451;28;20040;-72
2022/05/20 01:18:20;;;;;;;7.80;4.57;;;;;;;;;;5055134;28;20039;-73
2022/05/20 01:20:48;;;;;;;8.73;5.38;;;;;;;;;;5077917;28;20425;-73
2022/05/20 01:23:22;;;;;;;9.48;5.03;;;;;;;;;;5073362;28;20049;-72
2022/05/20 01:25:49;;;;;;;8.23;4.70;;;;;;;;;;5067115;28;20498;-73
2022/05/20 01:28:16;;;;;;;7.35;3.90;;;;;;;;;;5076723;28;20090;-74
2022/05/20 01:30:45;;;;;;;8.90;4.40;;;;;;;;;;5061515;28;20491;-73
2022/05/20 01:33:11;;;;;;;8.98;4.63;;;;;;;;;;5072479;28;20193;-72
2022/05/20 01:35:39;;;;;;;9.50;5.30;;;;;;;;;;5057231;28;20510;-73
2022/05/20 01:38:06;;;;;;;9.43;5.05;;;;;;;;;;5069169;28;20037;-72
2022/05/20 01:40:36;;;;;;;9.05;5.68;;;;;;;;;;5077790;28;20049;-72
2022/05/20 01:43:07;;;;;;;9.23;4.97;;;;;;;;;;5077046;28;20399;-72
2022/05/20 01:45:38;;;;;;;9.13;4.78;;;;;;;;;;5072315;28;20049;-73
2022/05/20 01:48:13;;;;;;;8.50;4.90;;;;;;;;;;5071355;28;20051;-73
2022/05/20 01:50:44;;;;;;;8.00;4.93;;;;;;;;;;5075247;28;20473;-71
2022/05/20 01:53:28;;;;;;;8.68;5.00;;;;;;;;;;5076797;28;20053;-73
2022/05/20 01:56:07;;;;;;;9.00;5.00;;;;;;;;;;5077187;28;20128;-73
2022/05/20 01:58:40;;;;;;;10.27;5.07;;;;;;;;;;5051166;28;20048;-72
2022/05/20 02:01:09;;;;;;;7.07;4.45;;;;;;;;;;5071336;28;20087;-74
2022/05/20 02:03:41;;;;;;;8.77;4.35;;;;;;;;;;5059210;28;20041;-72
2022/05/20 02:06:28;;;;;;;10.50;4.30;;;;;;;;;;5072809;28;20051;-71
2022/05/20 02:09:07;;;;;;;8.25;4.00;;;;;;;;;;5075198;28;20127;-72
2022/05/20 02:11:36;;;;;;;7.18;4.07;;;;;;;;;;5077167;28;20036;-72
2022/05/20 02:14:11;;;;;;;7.00;3.83;;;;;;;;;;5075617;28;20068;-72
2022/05/20 02:16:39;;;;;;;7.40;4.00;;;;;;;;;;5075919;28;20044;-72
2022/05/20 02:19:09;;;;;;;9.85;4.03;;;;;;;;;;5074000;28;20049;-72
2022/05/20 02:21:37;;;;;;;7.60;3.97;;;;;;;;;;5076103;28;20047;-72
2022/05/20 02:24:05;;;;;;;8.85;4.00;;;;;;;;;;5076806;28;20044;-73
2022/05/20 02:26:33;;;;;;;8.55;3.63;;;;;;;;;;5059236;28;20044;-73
2022/05/20 02:29:04;;;;;;;8.35;4.18;;;;;;;;;;5066657;28;20095;-74
2022/05/20 02:31:50;;;;;;;8.95;4.03;;;;;;;;;;5071241;28;20047;-73
2022/05/20 02:34:16;;;;;;;7.03;4.03;;;;;;;;;;5059633;28;20080;-73
2022/05/20 02:36:42;;;;;;;8.85;4.18;;;;;;;;;;5074329;28;20105;-74
2022/05/20 02:39:15;;;;;;;7.95;4.50;;;;;;;;;;5070655;28;20490;-74
2022/05/20 02:41:50;;;;;;;10.63;4.63;;;;;;;;;;5075618;28;20052;-73
2022/05/20 02:44:16;;;;;;;10.10;4.93;;;;;;;;;;5075688;28;20112;-72
2022/05/20 02:46:46;;;;;;;10.40;4.95;;;;;;;;;;5074717;28;20044;-73
2022/05/20 02:49:12;;;;;;;9.20;4.47;;;;;;;;;;5056906;28;20052;-73
2022/05/20 02:51:38;;;;;;;7.68;4.63;;;;;;;;;;5075011;28;20121;-72
2022/05/20 02:54:05;;;;;;;10.15;5.07;;;;;;;;;;5074297;28;20486;-73
2022/05/20 02:56:31;;;;;;;9.23;5.72;;;;;;;;;;5051028;28;20040;-74
2022/05/20 03:04:27;;;;;;;11.93;6.72;;;;;;;;;;5081823;28;20044;-73
2022/05/20 03:06:54;;;;;;;9.88;6.70;;;;;;;;;;5076185;28;20052;-74
2022/05/20 03:09:22;;;;;;;12.02;7.35;;;;;;;;;;5081780;28;20052;-74
2022/05/20 03:11:48;;;;;;;13.20;7.93;;;;;;;;;;5079881;28;20509;-73
2022/05/20 03:14:16;;;;;;;10.50;7.28;;;;;;;;;;5079657;28;20036;-73
2022/05/20 03:16:42;;;;;;;10.50;6.80;;;;;;;;;;5078287;28;20390;-72
2022/05/20 03:19:08;;;;;;;12.05;7.43;;;;;;;;;;5078879;28;20402;-73
2022/05/20 03:21:35;;;;;;;12.20;8.25;;;;;;;;;;5077229;28;20036;-73
2022/05/20 03:24:02;;;;;;;11.32;7.82;;;;;;;;;;5077303;28;20043;-73
2022/05/20 03:26:28;;;;;;;13.20;9.05;;;;;;;;;;5076087;28;20040;-73
2022/05/20 03:28:55;;;;;;;14.18;9.50;;;;;;;;;;5075572;28;20491;-74
2022/05/20 03:31:21;;;;;;;14.88;8.68;;;;;;;;;;5043870;28;20040;-71
2022/05/20 03:33:47;;;;;;;13.07;9.13;;;;;;;;;;5059212;28;20178;-73
2022/05/20 03:36:14;;;;;;;14.88;9.60;;;;;;;;;;5077341;28;20193;-73
2022/05/20 03:38:40;;;;;;;12.35;10.15;;;;;;;;;;5076157;28;20043;-72
2022/05/20 03:41:06;;;;;;;14.05;10.02;;;;;;;;;;5079025;28;20048;-72
2022/05/20 03:43:33;;;;;;;14.82;10.30;;;;;;;;;;5078080;28;20033;-72
2022/05/20 03:45:59;;;;;;;15.13;10.30;;;;;;;;;;5078494;28;20044;-73
2022/05/20 03:48:25;;;;;;;12.07;9.88;;;;;;;;;;5078411;28;20058;-72
2022/05/20 03:50:51;;;;;;;14.48;10.43;;;;;;;;;;5075452;28;20055;-74
2022/05/20 03:53:17;;;;;;;15.73;10.07;;;;;;;;;;5065700;28;20402;-71
2022/05/20 03:55:43;;;;;;;13.73;10.07;;;;;;;;;;5078219;28;20036;-73
2022/05/20 03:58:09;;;;;;;12.55;10.25;;;;;;;;;;5079888;28;20120;-73
2022/05/20 04:01:56;;;;;;;15.05;9.93;;;;;;;;;;5040506;28;20175;-74
2022/05/20 04:03:22;;;;;;;13.68;10.02;;;;;;;;;;5059087;28;20411;-73
2022/05/20 04:05:48;;;;;;;13.68;9.27;;;;;;;;;;5068042;28;20104;-73
2022/05/20 04:08:14;;;;;;;14.52;9.15;;;;;;;;;;5079476;28;20084;-73
2022/05/20 04:10:40;;;;;;;14.13;8.85;;;;;;;;;;5069319;28;20045;-74
2022/05/20 04:13:06;;;;;;;11.57;8.90;;;;;;;;;;5060094;28;20093;-73
2022/05/20 04:15:32;;;;;;;13.07;9.10;;;;;;;;;;5077488;28;20033;-73
2022/05/20 04:17:58;;;;;;;12.43;9.52;;;;;;;;;;5079518;28;20045;-73
2022/05/20 04:20:24;;;;;;;13.40;9.35;;;;;;;;;;5060707;28;20056;-72
2022/05/20 04:22:50;;;;;;;12.73;8.88;;;;;;;;;;5077936;28;20044;-73
2022/05/20 04:25:16;;;;;;;12.35;8.70;;;;;;;;;;5052950;28;20052;-74
2022/05/20 04:27:42;;;;;;;11.73;8.25;;;;;;;;;;5077117;28;20041;-73
2022/05/20 04:30:09;;;;;;;10.82;7.88;;;;;;;;;;5075935;28;20568;-73
2022/05/20 04:32:35;;;;;;;14.98;8.68;;;;;;;;;;5078701;28;20102;-73
2022/05/20 04:35:01;;;;;;;11.52;7.55;;;;;;;;;;5076678;28;20053;-73
2022/05/20 04:37:27;;;;;;;11.70;7.65;;;;;;;;;;5075409;28;20044;-73
2022/05/20 04:39:53;;;;;;;12.23;7.93;;;;;;;;;;5073298;28;20075;-73
2022/05/20 04:47:49;;;;;;;13.27;8.15;;;;;;;;;;5075335;28;20044;-73
2022/05/20 04:50:16;;;;;;;11.10;7.90;;;;;;;;;;5074800;28;20039;-72
2022/05/20 04:52:42;;;;;;;12.68;8.00;;;;;;;;;;5075264;28;20044;-73
2022/05/20 04:55:08;;;;;;;12.70;8.20;;;;;;;;;;5058533;28;20048;-73
2022/05/20 04:57:34;;;;;;;13.75;8.02;;;;;;;;;;5067675;28;20045;-72
2022/05/20 05:00:07;;;;;;;15.45;8.65;;;;;;;;;;5038564;28;20067;-73
2022/05/20 05:02:33;;;;;;;11.07;8.02;;;;;;;;;;5073740;28;20104;-73
2022/05/20 05:04:59;;;;;;;15.52;8.75;;;;;;;;;;5069467;28;20487;-73
2022/05/20 05:07:26;;;;;;;12.07;9.05;;;;;;;;;;5064274;28;20045;-72
2022/05/20 05:09:53;;;;;;;12.95;8.60;;;;;;;;;;5075880;28;20047;-73
2022/05/20 05:12:19;;;;;;;15.02;9.32;;;;;;;;;;5063605;28;20056;-73
2022/05/20 05:14:49;;;;;;;14.63;9.57;;;;;;;;;;5060357;28;20051;-74
2022/05/20 05:18:09;;;;;;;14.43;9.93;;;;;;;;;;5021548;28;20037;-73
2022/05/20 05:20:04;;;;;;;13.45;9.73;;;;;;;;;;5056424;28;20080;-73
2022/05/20 05:22:30;;;;;;;13.20;9.43;;;;;;;;;;5068217;28;20072;-72
2022/05/20 05:24:56;;;;;;;12.90;8.60;;;;;;;;;;5071374;28;20116;-74
2022/05/20 05:27:21;;;;;;;14.32;9.13;;;;;;;;;;5074931;28;20110;-73
2022/05/20 05:29:47;;;;;;;16.60;9.93;;;;;;;;;;5074821;28;20395;-72
2022/05/20 05:32:13;;;;;;;15.85;9.13;;;;;;;;;;5075270;28;20132;-73
2022/05/20 05:34:39;;;;;;;14.90;9.00;;;;;;;;;;5041022;28;20079;-73
2022/05/20 05:37:05;;;;;;;14.00;8.73;;;;;;;;;;5051062;28;20462;-73
2022/05/20 05:39:31;;;;;;;14.48;9.02;;;;;;;;;;5065950;28;20048;-73
2022/05/20 05:42:01;;;;;;;16.15;8.80;;;;;;;;;;5053091;28;20106;-74
2022/05/20 05:44:27;;;;;;;15.55;8.90;;;;;;;;;;5071746;28;20375;-73
2022/05/20 05:46:52;;;;;;;12.30;8.57;;;;;;;;;;5073422;28;20059;-73
2022/05/20 05:49:19;;;;;;;12.32;7.60;;;;;;;;;;5059365;28;20055;-73
2022/05/20 05:51:45;;;;;;;13.48;7.55;;;;;;;;;;5075192;28;20047;-75
2022/05/20 05:54:11;;;;;;;11.70;8.05;;;;;;;;;;5073074;28;20048;-73
2022/05/20 05:56:38;;;;;;;11.07;7.40;;;;;;;;;;5049447;28;20437;-74
2022/05/20 05:59:04;;;;;;;11.75;6.47;;;;;;;;;;5074260;28;20536;-72
2022/05/20 06:01:30;;;;;;;10.40;6.50;;;;;;;;;;5056314;28;20044;-74
2022/05/20 06:03:56;;;;;;;14.32;7.20;;;;;;;;;;5068942;28;20087;-74
2022/05/20 06:06:22;;;;;;;11.73;6.57;;;;;;;;;;5065222;28;20490;-74
2022/05/20 06:08:49;;;;;;;14.13;7.18;;;;;;;;;;5076013;28;20040;-74
2022/05/20 06:11:15;;;;;;;11.20;6.53;;;;;;;;;;5047227;28;20390;-74
2022/05/20 06:13:41;;;;;;;12.07;6.32;;;;;;;;;;5057281;28;20432;-74
2022/05/20 06:16:07;;;;;;;11.05;6.13;;;;;;;;;;5068509;28;20398;-73
2022/05/20 06:18:33;;;;;;;12.25;5.60;;;;;;;;;;5075844;28;20049;-74
2022/05/20 06:20:59;;;;;;;11.07;5.28;;;;;;;;;;5071645;28;20094;-75
2022/05/20 06:23:25;;;;;;;10.48;5.50;;;;;;;;;;5041123;28;20041;-75
2022/05/20 06:25:51;;;;;;;12.80;5.53;;;;;;;;;;5072230;28;20040;-74
2022/05/20 06:28:18;;;;;;;10.77;4.70;;;;;;;;;;5055329;28;20041;-75
2022/05/20 06:30:45;;;;;;;10.32;5.25;;;;;;;;;;5063446;28;20033;-74
2022/05/20 06:33:12;;;;;;;11.20;4.82;;;;;;;;;;5066242;28;20032;-74
2022/05/20 06:41:08;;;;;;;9.70;4.47;;;;;;;;;;5077347;28;20426;-73
2022/05/20 06:43:34;;;;;;;9.88;4.80;;;;;;;;;;5079119;28;20045;-73
2022/05/20 06:46:02;;;;;;;10.15;4.78;;;;;;;;;;5060343;28;20036;-75
2022/05/20 06:48:44;;;;;;;8.65;4.60;;;;;;;;;;5078903;28;20044;-74
2022/05/20 06:51:11;;;;;;;12.02;5.15;;;;;;;;;;5076146;28;20044;-73
2022/05/20 06:53:37;;;;;;;9.15;3.97;;;;;;;;;;5079481;28;20418;-74
2022/05/20 06:56:04;;;;;;;7.93;3.70;;;;;;;;;;5079526;28;20105;-74
2022/05/20 06:58:31;;;;;;;8.55;3.70;;;;;;;;;;5079996;28;20044;-74
2022/05/20 07:00:57;;;;;;;12.85;3.63;;;;;;;;;;5071435;28;20133;-74
2022/05/20 07:03:23;;;;;;;9.35;4.68;;;;;;;;;;5078718;28;20425;-73
2022/05/20 07:05:49;;;;;;;11.32;4.55;;;;;;;;;;5068505;28;20124;-74
2022/05/20 07:08:16;;;;;;;8.60;4.68;;;;;;;;;;5069086;28;20080;-73
2022/05/20 07:10:41;;;;;;;9.20;4.05;;;;;;;;;;5078038;28;20033;-75
2022/05/20 07:13:07;;;;;;;11.43;4.20;;;;;;;;;;5078016;28;20040;-74
2022/05/20 07:15:33;;;;;;;10.27;5.03;;;;;;;;;;5067272;28;20468;-74
2022/05/20 07:17:59;;;;;;;8.93;5.20;;;;;;;;;;5054506;28;20049;-74
2022/05/20 07:20:25;;;;;;;8.95;5.07;;;;;;;;;;5059112;28;20041;-74
2022/05/20 07:22:52;;;;;;;9.00;4.72;;;;;;;;;;5064957;28;20045;-74
2022/05/20 07:25:21;;;;;;;9.85;5.28;;;;;;;;;;5059061;28;20045;-74
2022/05/20 07:27:47;;;;;;;8.43;4.68;;;;;;;;;;5066709;28;20041;-73
2022/05/20 07:30:14;;;;;;;8.10;4.60;;;;;;;;;;5049634;28;20074;-73
2022/05/20 07:32:40;;;;;;;8.32;4.78;;;;;;;;;;5052848;28;20048;-74
2022/05/20 07:35:09;;;;;;;8.98;4.88;;;;;;;;;;5070296;28;20059;-74
2022/05/20 07:37:35;;;;;;;9.07;4.38;;;;;;;;;;5077549;28;20040;-74
2022/05/20 07:40:01;;;;;;;7.97;3.95;;;;;;;;;;5061062;28;20048;-73
2022/05/20 07:42:27;;;;;;;11.35;4.65;;;;;;;;;;5071099;28;20375;-74
2022/05/20 07:44:53;;;;;;;12.88;5.03;;;;;;;;;;5058432;28;20053;-74
2022/05/20 07:47:20;;;;;;;9.32;4.85;;;;;;;;;;5071048;28;20406;-74
2022/05/20 07:49:46;;;;;;;7.75;3.95;;;;;;;;;;5076638;28;20055;-74
2022/05/20 07:53:19;;;;;;;8.85;4.65;;;;;;;;;;5060879;28;20044;-74
2022/05/20 07:55:00;;;;;;;6.97;4.35;;;;;;;;;;5072180;28;20044;-74
2022/05/20 07:57:26;;;;;;;7.88;4.50;;;;;;;;;;5077643;28;20517;-73
2022/05/20 07:59:53;;;;;;;7.45;4.40;;;;;;;;;;5077755;28;20040;-73
2022/05/20 08:02:21;;;;;;;8.05;4.43;;;;;;;;;;5076219;28;20047;-72
2022/05/20 08:05:00;;;;;;;9.25;4.63;;;;;;;;;;5067051;28;20045;-73
2022/05/20 08:07:41;;;;;;;9.90;4.68;;;;;;;;;;5067039;28;20044;-72
2022/05/20 08:10:12;;;;;;;8.80;4.97;;;;;;;;;;5042669;28;20052;-73
2022/05/20 08:12:38;;;;;;;;;;;;;;;;;;5078500;28;20048;-73
2022/05/20 08:15:04;;;;;;;8.00;4.97;;;;;;;;;;5076867;28;19971;-73
2022/05/20 08:17:33;;;;;;;9.45;5.90;;;;;;;;;;5077811;28;20056;-74
2022/05/20 08:19:59;;;;;;;10.57;5.65;;;;;;;;;;5077480;28;20051;-74
2022/05/20 08:22:25;;;;;;;9.65;5.20;;;;;;;;;;5077631;28;20052;-73
2022/05/20 08:24:52;;;;;;;9.70;5.43;;;;;;;;;;5076971;28;20045;-73
2022/05/20 08:27:22;;;;;;;8.95;5.20;;;;;;;;;;5057501;28;20063;-73
2022/05/20 08:29:48;;;;;;;8.30;4.93;;;;;;;;;;5026403;28;20516;-73
2022/05/20 08:32:15;;;;;;;8.93;5.28;;;;;;;;;;5075326;28;20036;-72
2022/05/20 08:34:42;;;;;;;9.32;5.25;;;;;;;;;;5059894;28;20053;-73
2022/05/20 08:37:08;;;;;;;8.50;5.18;;;;;;;;;;5057235;28;20057;-74
2022/05/20 08:39:34;;;;;;;8.07;4.88;;;;;;;;;;5073596;28;20066;-73
2022/05/20 08:42:00;;;;;;;7.95;5.60;;;;;;;;;;5075271;28;20040;-72
2022/05/20 08:44:27;;;;;;;9.63;5.38;;;;;;;;;;5075594;28;20105;-73
2022/05/20 08:47:06;;;;;;;9.02;5.10;;;;;;;;;;5057870;28;20048;-72
2022/05/20 08:49:32;;;;;;;8.15;4.78;;;;;;;;;;5068236;28;20072;-74
2022/05/20 08:51:58;;;;;;;8.27;4.70;;;;;;;;;;5078262;28;20055;-73
2022/05/20 08:54:24;;;;;;;9.40;5.07;;;;;;;;;;5074864;28;20036;-73
2022/05/20 08:56:51;;;;;;;8.65;5.28;;;;;;;;;;5044193;28;20037;-73
2022/05/20 08:59:19;;;;;;;8.32;4.88;;;;;;;;;;5056724;28;20041;-72
2022/05/20 09:01:46;;;;;;;8.70;4.80;;;;;;;;;;5043374;28;20037;-73
2022/05/20 09:04:14;;;;;;;8.40;4.75;;;;;;;;;;5072737;28;20052;-74
2022/05/20 09:06:41;;;;;;;8.93;4.75;;;;;;;;;;5064970;28;20123;-73
2022/05/20 09:09:07;;;;;;;9.63;5.03;;;;;;;;;;5072530;28;20094;-73
2022/05/20 09:11:34;;;;;;;9.13;4.53;;;;;;;;;;5076158;28;20063;-75
2022/05/20 09:16:56;;;;;;;8.85;4.47;;;;;;;;;;5056920;28;20487;-74
2022/05/20 09:19:27;;;;;;;8.35;4.68;;;;;;;;;;5063491;28;20057;-75
2022/05/20 09:22:02;;;;;;;10.82;5.50;;;;;;;;;;5074951;28;20048;-73
2022/05/20 09:24:35;;;;;;;9.00;5.57;;;;;;;;;;5061510;28;20083;-73
2022/05/20 09:27:05;;;;;;;9.80;5.10;;;;;;;;;;5034668;28;20064;-73
2022/05/20 09:29:40;;;;;;;12.55;5.65;;;;;;;;;;5060868;28;20098;-73
2022/05/20 09:32:07;;;;;;;9.60;5.30;;;;;;;;;;5071290;28;20049;-72
2022/05/20 09:34:36;;;;;;;8.38;4.95;;;;;;;;;;5065478;28;20068;-74
2022/05/20 09:37:13;;;;;;;8.27;4.55;;;;;;;;;;5073837;28;20041;-73
2022/05/20 09:39:50;;;;;;;9.32;4.00;;;;;;;;;;5059313;28;20098;-74
2022/05/20 09:42:27;;;;;;;9.25;3.97;;;;;;;;;;5073268;28;20398;-74
2022/05/20 09:45:00;;;;;;;6.30;3.50;;;;;;;;;;5074993;28;20044;-74
2022/05/20 09:47:26;;;;;;;7.68;4.45;;;;;;;;;;5076404;28;20505;-74
2022/05/20 09:49:55;;;;;;;8.40;4.53;;;;;;;;;;5076660;28;20048;-74
2022/05/20 09:52:21;;;;;;;7.60;4.60;;;;;;;;;;5075460;28;20073;-74
2022/05/20 09:54:49;;;;;;;7.20;4.10;;;;;;;;;;5067177;28;20040;-73
2022/05/20 09:57:28;;;;;;;7.43;3.60;;;;;;;;;;5064363;28;20045;-74
2022/05/20 10:00:17;;;;;;;6.60;3.28;;;;;;;;;;5076725;28;20123;-73
2022/05/20 10:02:44;;;;;;;7.78;4.13;;;;;;;;;;5065407;28;20449;-73
2022/05/20 10:05:10;;;;;;;7.30;3.90;;;;;;;;;;5056781;28;20072;-72
2022/05/20 10:07:45;;;;;;;7.55;4.72;;;;;;;;;;5056233;28;20582;-74
2022/05/20 10:10:15;;;;;;;6.38;3.90;;;;;;;;;;5056843;28;20049;-73
2022/05/20 10:12:43;;;;;;;5.93;3.10;;;;;;;;;;5063187;28;20043;-73
2022/05/20 10:15:12;;;;;;;6.97;3.25;;;;;;;;;;5076039;28;20426;-74
2022/05/20 10:17:44;;;;;;;8.43;3.30;;;;;;;;;;5065193;28;20045;-73
2022/05/20 10:20:16;;;;;;;7.10;3.88;;;;;;;;;;5063086;28;20513;-74
2022/05/20 10:22:45;;;;;;;7.13;3.25;;;;;;;;;;5074623;28;20048;-73
2022/05/20 10:25:17;;;;;;;9.07;4.13;;;;;;;;;;5062025;28;20044;-74
2022/05/20 10:28:01;;;;;;;8.40;4.20;;;;;;;;;;5063669;28;20071;-74
2022/05/20 10:33:22;;;;;;;9.75;4.95;;;;;;;;;;5050291;28;20075;-74
2022/05/20 10:35:54;;;;;;;8.02;4.70;;;;;;;;;;5074583;28;20053;-74
2022/05/20 10:38:34;;;;;;;6.50;4.00;;;;;;;;;;5073510;28;20044;-74
2022/05/20 10:41:10;;;;;;;8.38;4.20;;;;;;;;;;5055055;28;20049;-73
2022/05/20 10:49:33;;;;;;;8.02;4.65;;;;;;;;;;5074479;28;20053;-73
2022/05/20 10:52:09;;;;;;;8.73;4.47;;;;;;;;;;5055589;28;20049;-72
2022/05/20 10:54:48;;;;;;;6.93;4.70;;;;;;;;;;5060007;28;20083;-72
2022/05/20 10:57:33;;;;;;;6.15;3.35;;;;;;;;;;5053636;28;20076;-71
2022/05/20 11:00:14;;;;;;;6.43;4.13;;;;;;;;;;5071120;28;20045;-71
2022/05/20 11:03:06;;;;;;;6.90;3.78;;;;;;;;;;5071808;28;20049;-72
2022/05/20 11:05:51;;;;;;;7.40;3.75;;;;;;;;;;5054824;28;20037;-72
2022/05/20 11:08:26;;;;;;;9.95;4.68;;;;;;;;;;5066016;28;20044;-73
2022/05/20 11:10:58;;;;;;;7.20;4.57;;;;;;;;;;5072305;28;20045;-73
2022/05/20 11:13:45;;;;;;;7.10;4.38;;;;;;;;;;5075257;28;20108;-73
2022/05/20 11:16:20;;;;;;;8.25;5.53;;;;;;;;;;5073510;28;20494;-73
2022/05/20 11:18:55;;;;;;;7.28;5.10;;;;;;;;;;5071694;28;20040;-73
2022/05/20 11:21:24;;;;;;;7.85;6.07;;;;;;;;;;5076214;28;20045;-71
2022/05/20 11:24:14;;;;;;;10.13;6.38;;;;;;;;;;5069858;28;20052;-73
2022/05/20 11:26:59;;;;;;;8.90;4.60;;;;;;;;;;5062834;28;20037;-72
2022/05/20 11:29:25;;;;;;;7.93;5.90;;;;;;;;;;5075115;28;20048;-72
2022/05/20 11:31:56;;;;;;;9.02;6.68;;;;;;;;;;5046957;28;20048;-73
2022/05/20 11:34:22;;;;;;;;;;;;;;;;;;5072147;28;20185;-73
2022/05/20 11:37:09;;;;;;;8.82;7.82;;;;;;;;;;5048576;28;19993;-72
2022/05/20 11:39:38;;;;;;;9.50;8.50;;;;;;;;;;5073377;28;20474;-72
2022/05/20 11:42:08;;;;;;;11.63;9.23;;;;;;;;;;5068070;28;20095;-72
2022/05/20 11:44:36;;;;;;;12.88;10.13;;;;;;;;;;5057572;28;20068;-72
2022/05/20 11:47:19;;;;;;;14.77;13.13;;;;;;;;;;5048641;28;20048;-73
2022/05/20 11:50:00;;;;;;;13.93;11.98;;;;;;;;;;5076785;28;20048;-73
2022/05/20 11:52:40;;;;;;;14.27;12.77;;;;;;;;;;5076970;28;20414;-73
2022/05/20 11:55:06;;;;;;;15.27;13.77;;;;;;;;;;5074738;28;20037;-72
2022/05/20 11:57:38;;;;;;;14.18;12.88;;;;;;;;;;5077082;28;20071;-73
2022/05/20 12:00:04;;;;;;;15.00;13.50;;;;;;;;;;5076699;28;20045;-73
2022/05/20 12:02:32;;;;;;;15.93;14.43;;;;;;;;;;5072536;28;20048;-72
2022/05/20 12:04:59;;;;;;;16.48;14.88;;;;;;;;;;5076170;28;20032;-72
2022/05/20 12:07:25;;;;;;;15.68;14.20;;;;;;;;;;5052042;28;20059;-72
2022/05/20 12:09:53;;;;;;;14.18;12.88;;;;;;;;;;5075521;28;20106;-73
2022/05/20 12:12:30;;;;;;;16.63;14.73;;;;;;;;;;5071313;28;20087;-72
2022/05/20 12:15:29;;;;;;;15.55;14.15;;;;;;;;;;5076867;28;20127;-72
2022/05/20 12:17:55;;;;;;;14.52;13.13;;;;;;;;;;5064556;28;20102;-73
2022/05/20 12:26:00;;;;;;;16.30;14.40;;;;;;;;;;4994358;28;20109;-72
2022/05/20 12:28:26;;;;;;;16.15;14.60;;;;;;;;;;4985202;28;20105;-72
2022/05/20 12:31:07;;;;;;;16.08;14.52;;;;;;;;;;4999050;28;20451;-72
2022/05/20 12:33:52;;;;;;;14.88;13.35;;;;;;;;;;5000941;28;20057;-73
2022/05/20 12:36:20;;;;;;;14.10;12.77;;;;;;;;;;4994896;28;20420;-72
2022/05/20 12:38:46;;;;;;;14.60;13.10;;;;;;;;;;4994590;28;20061;-73
2022/05/20 12:41:16;;;;;;;14.55;13.15;;;;;;;;;;4995453;28;20088;-72
2022/05/20 12:43:46;;;;;;;15.60;14.10;;;;;;;;;;4992576;28;20050;-74
2022/05/20 12:46:17;;;;;;;14.77;13.38;;;;;;;;;;4978598;28;20050;-72
2022/05/20 12:48:43;;;;;;;14.07;12.77;;;;;;;;;;4994536;28;20047;-72
2022/05/20 12:51:09;;;;;;;12.07;10.98;;;;;;;;;;4995065;28;20055;-73
2022/05/20 12:53:36;;;;;;;10.80;9.70;;;;;;;;;;4992065;28;20038;-73
2022/05/20 12:56:03;;;;;;;10.43;9.40;;;;;;;;;;4994084;28;20108;-73
2022/05/20 12:58:30;;;;;;;9.95;8.70;;;;;;;;;;4995086;28;20591;-72
2022/05/20 13:00:58;;;;;;;9.48;8.48;;;;;;;;;;4995774;28;20073;-73
2022/05/20 13:03:28;;;;;;;10.05;8.00;;;;;;;;;;5051824;28;20105;-73
2022/05/20 13:06:01;;;;;;;8.70;7.50;;;;;;;;;;5075722;28;20072;-73
2022/05/20 13:08:31;;;;;;;9.48;6.70;;;;;;;;;;5060701;28;20095;-73
2022/05/20 13:11:11;;;;;;;8.57;6.57;;;;;;;;;;5073407;28;20470;-73
2022/05/20 13:13:37;;;;;;;9.18;6.22;;;;;;;;;;5075891;28;20055;-73
2022/05/20 13:16:05;;;;;;;9.40;5.70;;;;;;;;;;5065543;28;20040;-73
2022/05/20 13:18:37;;;;;;;9.68;6.20;;;;;;;;;;5060552;28;20094;-73
2022/05/20 13:21:07;;;;;;;9.95;5.95;;;;;;;;;;5075779;28;20586;-73
2022/05/20 13:23:38;;;;;;;8.80;5.22;;;;;;;;;;5075264;28;20070;-72
2022/05/20 13:26:05;;;;;;;8.82;5.15;;;;;;;;;;5075393;28;20044;-73
2022/05/20 13:28:35;;;;;;;10.10;5.60;;;;;;;;;;5076210;28;20414;-72
2022/05/20 13:31:02;;;;;;;9.38;5.05;;;;;;;;;;5075359;28;20048;-73
2022/05/20 13:33:29;;;;;;;9.10;4.72;;;;;;;;;;5069048;28;20048;-73
2022/05/20 13:35:55;;;;;;;9.07;6.00;;;;;;;;;;5040822;28;20060;-74
2022/05/20 13:38:24;;;;;;;9.25;5.28;;;;;;;;;;5075537;28;20124;-72
2022/05/20 13:40:50;;;;;;;8.07;5.40;;;;;;;;;;5076240;28;20486;-71
2022/05/20 13:43:17;;;;;;;8.80;5.78;;;;;;;;;;5067246;28;20101;-72
2022/05/20 13:51:33;;;;;;;8.75;5.28;;;;;;;;;;5060055;28;20060;-73
2022/05/20 13:54:03;;;;;;;9.82;5.00;;;;;;;;;;5045388;28;20486;-73
2022/05/20 13:56:31;;;;;;;9.85;6.32;;;;;;;;;;5074806;28;20041;-72
2022/05/20 13:59:00;;;;;;;7.78;5.22;;;;;;;;;;5074838;28;20080;-72
2022/05/20 14:01:26;;;;;;;10.23;5.55;;;;;;;;;;5073382;28;20051;-73
2022/05/20 14:03:52;;;;;;;8.20;5.22;;;;;;;;;;5070857;28;20123;-73
2022/05/20 14:06:19;;;;;;;9.32;5.22;;;;;;;;;;5071670;28;20044;-72
2022/05/20 14:08:49;;;;;;;9.10;5.18;;;;;;;;;;5046018;28;20044;-72
2022/05/20 14:11:16;;;;;;;8.52;5.40;;;;;;;;;;5037812;28;20049;-71
2022/05/20 14:13:44;;;;;;;8.70;4.80;;;;;;;;;;5066171;28;20037;-73
2022/05/20 14:16:17;;;;;;;8.93;4.78;;;;;;;;;;5070203;28;20049;-72
2022/05/20 14:18:47;;;;;;;9.50;5.18;;;;;;;;;;5058993;28;20131;-73
2022/05/20 14:21:19;;;;;;;13.52;4.88;;;;;;;;;;5028198;28;20056;-73
2022/05/20 14:23:46;;;;;;;9.95;4.82;;;;;;;;;;5057257;28;20041;-73
2022/05/20 14:26:36;;;;;;;9.55;5.57;;;;;;;;;;5076611;28;20129;-74
2022/05/20 14:29:04;;;;;;;10.55;5.72;;;;;;;;;;5057279;28;20576;-75
2022/05/20 14:31:36;;;;;;;9.48;5.50;;;;;;;;;;5071555;28;20059;-74
2022/05/20 14:34:14;;;;;;;16.98;6.00;;;;;;;;;;5054756;28;20055;-75
2022/05/20 14:36:41;;;;;;;9.45;5.63;;;;;;;;;;5051941;28;20041;-74
2022/05/20 14:39:10;;;;;;;9.80;5.75;;;;;;;;;;5073379;28;20049;-74
2022/05/20 14:41:37;;;;;;;9.43;5.60;;;;;;;;;;5074347;28;20052;-74
2022/05/20 14:44:07;;;;;;;12.38;5.93;;;;;;;;;;5072445;28;20041;-73
2022/05/20 14:49:30;;;;;;;11.10;7.10;;;;;;;;;;5069597;28;20514;-74
2022/05/20 14:51:56;;;;;;;9.35;6.88;;;;;;;;;;5049334;28;20037;-74
2022/05/20 14:54:26;;;;;;;12.55;7.07;;;;;;;;;;5057335;28;20486;-74
2022/05/20 14:56:52;;;;;;;13.50;7.72;;;;;;;;;;5076592;28;20040;-74
2022/05/20 14:59:29;;;;;;;12.35;7.20;;;;;;;;;;5074762;28;20045;-74
2022/05/20 15:01:56;;;;;;;11.93;7.78;;;;;;;;;;5069693;28;20056;-73
2022/05/20 15:04:22;;;;;;;12.70;7.82;;;;;;;;;;5049980;28;20474;-74
2022/05/20 15:06:48;;;;;;;15.20;7.43;;;;;;;;;;5059447;28;20045;-74
2022/05/20 15:09:25;;;;;;;16.27;8.82;;;;;;;;;;5060401;28;20413;-74
2022/05/20 15:11:52;;;;;;;14.73;7.60;;;;;;;;;;5074562;28;20087;-74
2022/05/20 15:14:18;;;;;;;14.25;8.55;;;;;;;;;;5065415;28;20123;-74
2022/05/20 15:16:44;;;;;;;12.95;8.63;;;;;;;;;;5032181;28;20040;-74
2022/05/20 15:19:11;;;;;;;13.35;9.25;;;;;;;;;;5075525;28;20067;-73
2022/05/20 15:21:38;;;;;;;14.25;9.48;;;;;;;;;;5076384;28;20045;-72
2022/05/20 15:24:07;;;;;;;12.30;9.32;;;;;;;;;;5075507;28;20056;-72
2022/05/20 15:26:33;;;;;;;16.02;10.40;;;;;;;;;;5076047;28;20044;-74
2022/05/20 15:29:00;;;;;;;13.10;10.38;;;;;;;;;;5075899;28;20048;-72